sensor_id;sensor_type;location;lat;lon;timestamp;temperature;humidity
2851;DHT22;1433;49.976;8.342;2023-11-19T00:01:00;8.50;99.90
2851;DHT22;1433;49.976;8.342;2023-11-19T00:03:26;8.50;99.90
2851;DHT22;1433;49.976;8.342;2023-11-19T00:05:52;8.60;99.90
2851;DHT22;1433;49.976;8.342;2023-11-19T00:08:18;8.60;99.90
2851;DHT22;1433;49.976;8.342;2023-11-19T00:10:44;8.60;99.90
2851;DHT22;1433;49.976;8.342;2023-11-19T00:13:12;8.60;99.90
2851;DHT22;1433;49.976;8.342;2023-11-19T00:15:38;8.60;99.90
2851;DHT22;1433;49.976;8.342;2023-11-19T00:18:04;8.60;99.90
2851;DHT22;1433;49.976;8.342;2023-11-19T00:20:30;8.70;99.90
2851;DHT22;1433;49.976;8.342;2023-11-19T00:22:56;8.70;99.90
2851;DHT22;1433;49.976;8.342;2023-11-19T00:25:23;8.70;99.90
2851;DHT22;1433;49.976;8.342;2023-11-19T00:27:51;8.70;99.90
2851;DHT22;1433;49.976;8.342;2023-11-19T00:30:19;8.70;99.90
2851;DHT22;1433;49.976;8.342;2023-11-19T00:32:45;8.80;99.90
2851;DHT22;1433;49.976;8.342;2023-11-19T00:35:11;8.80;99.90
2851;DHT22;1433;49.976;8.342;2023-11-19T00:37:39;8.90;99.90
2851;DHT22;1433;49.976;8.342;2023-11-19T00:40:06;8.80;99.90
2851;DHT22;1433;49.976;8.342;2023-11-19T00:42:33;8.80;99.90
2851;DHT22;1433;49.976;8.342;2023-11-19T00:44:59;8.80;99.90
2851;DHT22;1433;49.976;8.342;2023-11-19T00:47:26;8.80;99.90
2851;DHT22;1433;49.976;8.342;2023-11-19T00:49:52;8.80;99.90
2851;DHT22;1433;49.976;8.342;2023-11-19T00:52:19;8.80;99.90
2851;DHT22;1433;49.976;8.342;2023-11-19T00:54:45;8.80;99.90
2851;DHT22;1433;49.976;8.342;2023-11-19T00:57:11;8.80;99.90
2851;DHT22;1433;49.976;8.342;2023-11-19T00:59:37;8.90;99.90
2851;DHT22;1433;49.976;8.342;2023-11-19T01:02:04;8.80;99.90
2851;DHT22;1433;49.976;8.342;2023-11-19T01:04:35;8.80;99.90
2851;DHT22;1433;49.976;8.342;2023-11-19T01:07:02;8.70;99.90
2851;DHT22;1433;49.976;8.342;2023-11-19T01:09:34;8.70;99.90
2851;DHT22;1433;49.976;8.342;2023-11-19T01:11:58;8.60;99.90
2851;DHT22;1433;49.976;8.342;2023-11-19T01:14:27;8.60;99.90
2851;DHT22;1433;49.976;8.342;2023-11-19T01:16:54;8.70;99.90
2851;DHT22;1433;49.976;8.342;2023-11-19T01:19:21;8.60;99.90
2851;DHT22;1433;49.976;8.342;2023-11-19T01:21:49;8.60;99.90
2851;DHT22;1433;49.976;8.342;2023-11-19T01:24:15;8.70;99.90
2851;DHT22;1433;49.976;8.342;2023-11-19T01:26:42;8.60;99.90
2851;DHT22;1433;49.976;8.342;2023-11-19T01:29:12;8.60;99.90
2851;DHT22;1433;49.976;8.342;2023-11-19T01:31:41;8.60;99.90
2851;DHT22;1433;49.976;8.342;2023-11-19T01:34:15;8.70;99.90
2851;DHT22;1433;49.976;8.342;2023-11-19T01:36:41;8.70;99.90
2851;DHT22;1433;49.976;8.342;2023-11-19T01:39:07;8.70;99.90
2851;DHT22;1433;49.976;8.342;2023-11-19T01:41:35;8.70;99.90
2851;DHT22;1433;49.976;8.342;2023-11-19T01:44:05;8.70;99.90
2851;DHT22;1433;49.976;8.342;2023-11-19T01:46:35;8.70;99.90
2851;DHT22;1433;49.976;8.342;2023-11-19T01:49:02;8.70;99.90
2851;DHT22;1433;49.976;8.342;2023-11-19T01:51:28;8.80;99.90
2851;DHT22;1433;49.976;8.342;2023-11-19T01:53:55;8.80;99.90
2851;DHT22;1433;49.976;8.342;2023-11-19T01:56:23;8.80;99.90
2851;DHT22;1433;49.976;8.342;2023-11-19T01:58:50;8.80;99.90
2851;DHT22;1433;49.976;8.342;2023-11-19T02:01:16;8.80;99.90
2851;DHT22;1433;49.976;8.342;2023-11-19T02:03:43;8.80;99.90
2851;DHT22;1433;49.976;8.342;2023-11-19T02:06:09;8.80;99.90
2851;DHT22;1433;49.976;8.342;2023-11-19T02:08:36;8.90;99.90
2851;DHT22;1433;49.976;8.342;2023-11-19T02:11:04;8.90;99.90
2851;DHT22;1433;49.976;8.342;2023-11-19T02:13:32;8.90;99.90
2851;DHT22;1433;49.976;8.342;2023-11-19T02:15:58;9.00;99.90
2851;DHT22;1433;49.976;8.342;2023-11-19T02:18:27;8.90;99.90
2851;DHT22;1433;49.976;8.342;2023-11-19T02:20:55;8.90;99.90
2851;DHT22;1433;49.976;8.342;2023-11-19T02:23:21;9.00;99.90
2851;DHT22;1433;49.976;8.342;2023-11-19T02:28:21;9.00;99.90
2851;DHT22;1433;49.976;8.342;2023-11-19T02:30:47;9.00;99.90
2851;DHT22;1433;49.976;8.342;2023-11-19T02:33:14;9.00;99.90
2851;DHT22;1433;49.976;8.342;2023-11-19T02:35:41;9.00;99.90
2851;DHT22;1433;49.976;8.342;2023-11-19T02:38:07;9.00;99.90
2851;DHT22;1433;49.976;8.342;2023-11-19T02:40:33;9.00;99.90
2851;DHT22;1433;49.976;8.342;2023-11-19T02:42:59;9.00;99.90
2851;DHT22;1433;49.976;8.342;2023-11-19T02:45:26;9.00;99.90
2851;DHT22;1433;49.976;8.342;2023-11-19T02:47:52;9.00;99.90
2851;DHT22;1433;49.976;8.342;2023-11-19T02:50:19;9.10;99.90
2851;DHT22;1433;49.976;8.342;2023-11-19T02:52:48;9.10;99.90
2851;DHT22;1433;49.976;8.342;2023-11-19T02:55:14;9.10;99.90
2851;DHT22;1433;49.976;8.342;2023-11-19T02:57:41;9.10;99.90
2851;DHT22;1433;49.976;8.342;2023-11-19T03:00:18;9.10;99.90
2851;DHT22;1433;49.976;8.342;2023-11-19T03:02:44;9.20;99.90
2851;DHT22;1433;49.976;8.342;2023-11-19T03:05:14;9.30;99.90
2851;DHT22;1433;49.976;8.342;2023-11-19T03:07:43;9.30;99.90
2851;DHT22;1433;49.976;8.342;2023-11-19T03:10:10;9.30;99.90
2851;DHT22;1433;49.976;8.342;2023-11-19T03:12:39;9.30;99.90
2851;DHT22;1433;49.976;8.342;2023-11-19T03:15:05;9.30;99.90
2851;DHT22;1433;49.976;8.342;2023-11-19T03:17:32;9.30;99.90
2851;DHT22;1433;49.976;8.342;2023-11-19T03:19:58;9.30;99.90
2851;DHT22;1433;49.976;8.342;2023-11-19T03:22:24;9.30;99.90
2851;DHT22;1433;49.976;8.342;2023-11-19T03:24:51;9.40;99.90
2851;DHT22;1433;49.976;8.342;2023-11-19T03:27:17;9.40;99.90
2851;DHT22;1433;49.976;8.342;2023-11-19T03:29:43;9.40;99.90
2851;DHT22;1433;49.976;8.342;2023-11-19T03:32:09;9.30;99.90
2851;DHT22;1433;49.976;8.342;2023-11-19T03:34:35;9.40;99.90
2851;DHT22;1433;49.976;8.342;2023-11-19T03:37:02;9.40;99.90
2851;DHT22;1433;49.976;8.342;2023-11-19T03:39:28;9.40;99.90
2851;DHT22;1433;49.976;8.342;2023-11-19T03:41:55;9.40;99.90
2851;DHT22;1433;49.976;8.342;2023-11-19T03:44:21;9.40;99.90
2851;DHT22;1433;49.976;8.342;2023-11-19T03:46:47;9.40;99.90
2851;DHT22;1433;49.976;8.342;2023-11-19T03:49:13;9.50;99.90
2851;DHT22;1433;49.976;8.342;2023-11-19T03:51:39;9.50;99.90
2851;DHT22;1433;49.976;8.342;2023-11-19T03:54:06;9.50;99.90
2851;DHT22;1433;49.976;8.342;2023-11-19T03:56:32;9.50;99.90
2851;DHT22;1433;49.976;8.342;2023-11-19T03:58:58;9.50;99.90
2851;DHT22;1433;49.976;8.342;2023-11-19T04:01:25;9.50;99.90
2851;DHT22;1433;49.976;8.342;2023-11-19T04:03:51;9.60;99.90
2851;DHT22;1433;49.976;8.342;2023-11-19T04:06:17;9.60;99.90
2851;DHT22;1433;49.976;8.342;2023-11-19T04:08:43;9.60;99.90
2851;DHT22;1433;49.976;8.342;2023-11-19T04:11:10;9.60;99.90
2851;DHT22;1433;49.976;8.342;2023-11-19T04:13:36;9.60;99.90
2851;DHT22;1433;49.976;8.342;2023-11-19T04:16:03;9.60;99.90
2851;DHT22;1433;49.976;8.342;2023-11-19T04:18:30;9.60;99.90
2851;DHT22;1433;49.976;8.342;2023-11-19T04:20:57;9.60;99.90
2851;DHT22;1433;49.976;8.342;2023-11-19T04:23:24;9.60;99.90
2851;DHT22;1433;49.976;8.342;2023-11-19T04:25:50;9.60;99.90
2851;DHT22;1433;49.976;8.342;2023-11-19T04:28:16;9.70;99.90
2851;DHT22;1433;49.976;8.342;2023-11-19T04:30:43;9.70;99.90
2851;DHT22;1433;49.976;8.342;2023-11-19T04:33:10;9.70;99.90
2851;DHT22;1433;49.976;8.342;2023-11-19T04:35:36;9.70;99.90
2851;DHT22;1433;49.976;8.342;2023-11-19T04:38:02;9.70;99.90
2851;DHT22;1433;49.976;8.342;2023-11-19T04:40:28;9.70;99.90
2851;DHT22;1433;49.976;8.342;2023-11-19T04:42:54;9.70;99.90
2851;DHT22;1433;49.976;8.342;2023-11-19T04:45:21;9.80;99.90
2851;DHT22;1433;49.976;8.342;2023-11-19T04:47:47;9.70;99.90
2851;DHT22;1433;49.976;8.342;2023-11-19T04:50:13;9.80;99.90
2851;DHT22;1433;49.976;8.342;2023-11-19T04:52:39;9.80;99.90
2851;DHT22;1433;49.976;8.342;2023-11-19T04:55:10;9.80;99.90
2851;DHT22;1433;49.976;8.342;2023-11-19T04:57:37;9.80;99.90
2851;DHT22;1433;49.976;8.342;2023-11-19T05:00:04;9.80;99.90
2851;DHT22;1433;49.976;8.342;2023-11-19T05:02:31;9.80;99.90
2851;DHT22;1433;49.976;8.342;2023-11-19T05:04:57;9.80;99.90
2851;DHT22;1433;49.976;8.342;2023-11-19T05:07:23;9.90;99.90
2851;DHT22;1433;49.976;8.342;2023-11-19T05:09:49;9.90;99.90
2851;DHT22;1433;49.976;8.342;2023-11-19T05:12:15;9.90;99.90
2851;DHT22;1433;49.976;8.342;2023-11-19T05:14:41;9.80;99.90
2851;DHT22;1433;49.976;8.342;2023-11-19T05:17:09;9.80;99.90
2851;DHT22;1433;49.976;8.342;2023-11-19T05:19:36;9.80;99.90
2851;DHT22;1433;49.976;8.342;2023-11-19T05:22:02;9.80;99.90
2851;DHT22;1433;49.976;8.342;2023-11-19T05:24:28;9.90;99.90
2851;DHT22;1433;49.976;8.342;2023-11-19T05:26:55;9.90;99.90
2851;DHT22;1433;49.976;8.342;2023-11-19T05:29:22;9.90;99.90
2851;DHT22;1433;49.976;8.342;2023-11-19T05:31:48;9.90;99.90
2851;DHT22;1433;49.976;8.342;2023-11-19T05:34:14;9.90;99.90
2851;DHT22;1433;49.976;8.342;2023-11-19T05:36:41;10.00;99.90
2851;DHT22;1433;49.976;8.342;2023-11-19T05:39:07;9.90;99.90
2851;DHT22;1433;49.976;8.342;2023-11-19T05:41:33;9.90;99.90
2851;DHT22;1433;49.976;8.342;2023-11-19T05:43:59;9.90;99.90
2851;DHT22;1433;49.976;8.342;2023-11-19T05:46:25;10.00;99.90
2851;DHT22;1433;49.976;8.342;2023-11-19T05:48:52;10.00;99.90
2851;DHT22;1433;49.976;8.342;2023-11-19T05:51:18;10.00;99.90
2851;DHT22;1433;49.976;8.342;2023-11-19T05:53:45;10.00;99.90
2851;DHT22;1433;49.976;8.342;2023-11-19T05:56:11;10.00;99.90
2851;DHT22;1433;49.976;8.342;2023-11-19T05:58:37;10.00;99.90
2851;DHT22;1433;49.976;8.342;2023-11-19T06:01:05;10.00;99.90
2851;DHT22;1433;49.976;8.342;2023-11-19T06:03:33;10.00;99.90
2851;DHT22;1433;49.976;8.342;2023-11-19T06:05:59;10.00;99.90
2851;DHT22;1433;49.976;8.342;2023-11-19T06:08:25;9.90;99.90
2851;DHT22;1433;49.976;8.342;2023-11-19T06:10:52;10.00;99.90
2851;DHT22;1433;49.976;8.342;2023-11-19T06:13:19;9.90;99.90
2851;DHT22;1433;49.976;8.342;2023-11-19T06:15:45;10.00;99.90
2851;DHT22;1433;49.976;8.342;2023-11-19T06:18:12;10.00;99.90
2851;DHT22;1433;49.976;8.342;2023-11-19T06:20:38;10.00;99.90
2851;DHT22;1433;49.976;8.342;2023-11-19T06:23:04;10.10;99.90
2851;DHT22;1433;49.976;8.342;2023-11-19T06:25:31;10.20;99.90
2851;DHT22;1433;49.976;8.342;2023-11-19T06:27:57;10.20;99.90
2851;DHT22;1433;49.976;8.342;2023-11-19T06:30:23;10.20;99.90
2851;DHT22;1433;49.976;8.342;2023-11-19T06:32:49;10.20;99.90
2851;DHT22;1433;49.976;8.342;2023-11-19T06:35:15;10.20;99.90
2851;DHT22;1433;49.976;8.342;2023-11-19T06:37:42;10.10;99.90
2851;DHT22;1433;49.976;8.342;2023-11-19T06:40:09;10.10;99.90
2851;DHT22;1433;49.976;8.342;2023-11-19T06:42:36;10.10;99.90
2851;DHT22;1433;49.976;8.342;2023-11-19T06:45:02;10.10;99.90
2851;DHT22;1433;49.976;8.342;2023-11-19T06:47:29;10.20;99.90
2851;DHT22;1433;49.976;8.342;2023-11-19T06:49:56;10.30;99.90
2851;DHT22;1433;49.976;8.342;2023-11-19T06:52:22;10.20;99.90
2851;DHT22;1433;49.976;8.342;2023-11-19T06:54:48;10.20;99.90
2851;DHT22;1433;49.976;8.342;2023-11-19T06:57:14;10.10;99.90
2851;DHT22;1433;49.976;8.342;2023-11-19T06:59:40;10.10;99.90
2851;DHT22;1433;49.976;8.342;2023-11-19T07:02:06;10.00;99.90
2851;DHT22;1433;49.976;8.342;2023-11-19T07:04:32;9.90;99.90
2851;DHT22;1433;49.976;8.342;2023-11-19T07:07:01;9.90;99.90
2851;DHT22;1433;49.976;8.342;2023-11-19T07:09:28;9.90;99.90
2851;DHT22;1433;49.976;8.342;2023-11-19T07:11:54;9.90;99.90
2851;DHT22;1433;49.976;8.342;2023-11-19T07:14:20;9.90;99.90
2851;DHT22;1433;49.976;8.342;2023-11-19T07:16:47;10.00;99.90
2851;DHT22;1433;49.976;8.342;2023-11-19T07:19:13;10.00;99.90
2851;DHT22;1433;49.976;8.342;2023-11-19T07:21:43;10.00;99.90
2851;DHT22;1433;49.976;8.342;2023-11-19T07:24:10;10.10;99.90
2851;DHT22;1433;49.976;8.342;2023-11-19T07:26:46;10.10;99.90
2851;DHT22;1433;49.976;8.342;2023-11-19T07:29:13;10.20;99.90
2851;DHT22;1433;49.976;8.342;2023-11-19T07:31:40;10.20;99.90
2851;DHT22;1433;49.976;8.342;2023-11-19T07:34:07;10.10;99.90
2851;DHT22;1433;49.976;8.342;2023-11-19T07:36:34;10.00;99.90
2851;DHT22;1433;49.976;8.342;2023-11-19T07:39:03;9.90;99.90
2851;DHT22;1433;49.976;8.342;2023-11-19T07:41:31;9.80;99.90
2851;DHT22;1433;49.976;8.342;2023-11-19T07:43:57;9.80;99.90
2851;DHT22;1433;49.976;8.342;2023-11-19T07:46:24;9.80;99.90
2851;DHT22;1433;49.976;8.342;2023-11-19T07:48:52;9.80;99.90
2851;DHT22;1433;49.976;8.342;2023-11-19T07:51:18;9.80;99.90
2851;DHT22;1433;49.976;8.342;2023-11-19T07:53:44;9.80;99.90
2851;DHT22;1433;49.976;8.342;2023-11-19T07:56:11;9.80;99.90
2851;DHT22;1433;49.976;8.342;2023-11-19T07:58:37;9.80;99.90
2851;DHT22;1433;49.976;8.342;2023-11-19T08:01:04;9.90;99.90
2851;DHT22;1433;49.976;8.342;2023-11-19T08:03:31;9.80;99.90
2851;DHT22;1433;49.976;8.342;2023-11-19T08:05:59;9.90;99.90
2851;DHT22;1433;49.976;8.342;2023-11-19T08:08:25;10.00;99.90
2851;DHT22;1433;49.976;8.342;2023-11-19T08:10:51;9.90;99.90
2851;DHT22;1433;49.976;8.342;2023-11-19T08:13:18;10.00;99.90
2851;DHT22;1433;49.976;8.342;2023-11-19T08:15:46;10.00;99.90
2851;DHT22;1433;49.976;8.342;2023-11-19T08:18:13;10.00;99.90
2851;DHT22;1433;49.976;8.342;2023-11-19T08:20:39;10.00;99.90
2851;DHT22;1433;49.976;8.342;2023-11-19T08:23:05;10.10;99.90
2851;DHT22;1433;49.976;8.342;2023-11-19T08:25:31;10.10;99.90
2851;DHT22;1433;49.976;8.342;2023-11-19T08:27:59;10.20;99.90
2851;DHT22;1433;49.976;8.342;2023-11-19T08:30:26;10.30;99.90
2851;DHT22;1433;49.976;8.342;2023-11-19T08:32:53;10.40;99.90
2851;DHT22;1433;49.976;8.342;2023-11-19T08:35:19;10.70;99.90
2851;DHT22;1433;49.976;8.342;2023-11-19T08:37:45;10.90;99.90
2851;DHT22;1433;49.976;8.342;2023-11-19T08:40:13;11.10;99.90
2851;DHT22;1433;49.976;8.342;2023-11-19T08:42:40;11.20;99.90
2851;DHT22;1433;49.976;8.342;2023-11-19T08:45:07;11.30;99.90
2851;DHT22;1433;49.976;8.342;2023-11-19T08:47:39;11.40;99.90
2851;DHT22;1433;49.976;8.342;2023-11-19T08:50:06;11.50;99.90
2851;DHT22;1433;49.976;8.342;2023-11-19T08:52:32;11.50;99.90
2851;DHT22;1433;49.976;8.342;2023-11-19T08:54:59;11.50;99.90
2851;DHT22;1433;49.976;8.342;2023-11-19T08:57:25;11.40;99.90
2851;DHT22;1433;49.976;8.342;2023-11-19T08:59:51;11.40;99.90
2851;DHT22;1433;49.976;8.342;2023-11-19T09:02:17;11.50;99.90
2851;DHT22;1433;49.976;8.342;2023-11-19T09:04:44;11.60;99.90
2851;DHT22;1433;49.976;8.342;2023-11-19T09:07:10;11.70;99.90
2851;DHT22;1433;49.976;8.342;2023-11-19T09:09:36;11.80;99.90
2851;DHT22;1433;49.976;8.342;2023-11-19T09:12:03;11.90;99.90
2851;DHT22;1433;49.976;8.342;2023-11-19T09:14:30;12.00;99.90
2851;DHT22;1433;49.976;8.342;2023-11-19T09:16:56;12.20;99.90
2851;DHT22;1433;49.976;8.342;2023-11-19T09:19:24;12.30;99.90
2851;DHT22;1433;49.976;8.342;2023-11-19T09:21:50;12.40;99.90
2851;DHT22;1433;49.976;8.342;2023-11-19T09:24:16;12.60;99.90
2851;DHT22;1433;49.976;8.342;2023-11-19T09:26:42;12.60;99.90
2851;DHT22;1433;49.976;8.342;2023-11-19T09:29:08;12.70;99.90
2851;DHT22;1433;49.976;8.342;2023-11-19T09:31:35;12.90;99.90
2851;DHT22;1433;49.976;8.342;2023-11-19T09:34:01;13.00;99.90
2851;DHT22;1433;49.976;8.342;2023-11-19T09:36:27;13.10;99.90
2851;DHT22;1433;49.976;8.342;2023-11-19T09:38:53;13.30;99.90
2851;DHT22;1433;49.976;8.342;2023-11-19T09:41:20;13.70;99.90
2851;DHT22;1433;49.976;8.342;2023-11-19T09:43:47;14.10;99.90
2851;DHT22;1433;49.976;8.342;2023-11-19T09:46:14;14.40;99.90
2851;DHT22;1433;49.976;8.342;2023-11-19T09:48:42;14.60;99.90
2851;DHT22;1433;49.976;8.342;2023-11-19T09:51:10;14.50;99.90
2851;DHT22;1433;49.976;8.342;2023-11-19T09:53:37;14.30;99.90
2851;DHT22;1433;49.976;8.342;2023-11-19T09:56:05;14.40;99.90
2851;DHT22;1433;49.976;8.342;2023-11-19T09:58:32;14.70;99.90
2851;DHT22;1433;49.976;8.342;2023-11-19T10:00:59;14.80;99.90
2851;DHT22;1433;49.976;8.342;2023-11-19T10:03:33;14.90;99.90
2851;DHT22;1433;49.976;8.342;2023-11-19T10:06:02;14.90;99.90
2851;DHT22;1433;49.976;8.342;2023-11-19T10:08:29;14.90;99.90
2851;DHT22;1433;49.976;8.342;2023-11-19T10:10:55;14.70;99.90
2851;DHT22;1433;49.976;8.342;2023-11-19T10:13:26;14.60;99.90
2851;DHT22;1433;49.976;8.342;2023-11-19T10:15:53;14.70;99.90
2851;DHT22;1433;49.976;8.342;2023-11-19T10:18:25;14.90;99.90
2851;DHT22;1433;49.976;8.342;2023-11-19T10:20:51;15.00;99.90
2851;DHT22;1433;49.976;8.342;2023-11-19T10:23:18;15.00;99.90
2851;DHT22;1433;49.976;8.342;2023-11-19T10:25:44;15.30;99.90
2851;DHT22;1433;49.976;8.342;2023-11-19T10:28:10;15.20;99.90
2851;DHT22;1433;49.976;8.342;2023-11-19T10:30:36;15.00;99.90
2851;DHT22;1433;49.976;8.342;2023-11-19T10:33:10;14.90;99.90
2851;DHT22;1433;49.976;8.342;2023-11-19T10:35:55;14.90;99.90
2851;DHT22;1433;49.976;8.342;2023-11-19T10:38:23;14.80;99.90
2851;DHT22;1433;49.976;8.342;2023-11-19T10:40:51;14.90;99.90
2851;DHT22;1433;49.976;8.342;2023-11-19T10:43:18;14.80;99.90
2851;DHT22;1433;49.976;8.342;2023-11-19T10:45:45;14.70;99.90
2851;DHT22;1433;49.976;8.342;2023-11-19T10:48:11;14.70;99.90
2851;DHT22;1433;49.976;8.342;2023-11-19T10:50:40;14.90;99.90
2851;DHT22;1433;49.976;8.342;2023-11-19T10:53:08;14.90;99.90
2851;DHT22;1433;49.976;8.342;2023-11-19T10:55:36;15.00;99.90
2851;DHT22;1433;49.976;8.342;2023-11-19T10:58:06;15.10;99.90
2851;DHT22;1433;49.976;8.342;2023-11-19T11:03:19;15.20;99.90
2851;DHT22;1433;49.976;8.342;2023-11-19T11:05:47;15.60;99.90
2851;DHT22;1433;49.976;8.342;2023-11-19T11:08:14;15.70;99.90
2851;DHT22;1433;49.976;8.342;2023-11-19T11:10:55;15.70;99.90
2851;DHT22;1433;49.976;8.342;2023-11-19T11:13:23;15.70;99.90
2851;DHT22;1433;49.976;8.342;2023-11-19T11:15:51;15.80;99.90
2851;DHT22;1433;49.976;8.342;2023-11-19T11:18:17;16.40;99.90
2851;DHT22;1433;49.976;8.342;2023-11-19T11:20:45;16.90;99.90
2851;DHT22;1433;49.976;8.342;2023-11-19T11:32:23;18.00;99.90
2851;DHT22;1433;49.976;8.342;2023-11-19T11:37:33;18.40;99.90
2851;DHT22;1433;49.976;8.342;2023-11-19T11:40:02;18.10;99.90
2851;DHT22;1433;49.976;8.342;2023-11-19T11:42:33;17.60;99.90
2851;DHT22;1433;49.976;8.342;2023-11-19T11:50:16;17.70;99.90
2851;DHT22;1433;49.976;8.342;2023-11-19T11:58:18;17.80;99.90
2851;DHT22;1433;49.976;8.342;2023-11-19T12:00:46;18.10;99.90
2851;DHT22;1433;49.976;8.342;2023-11-19T12:03:13;18.20;99.90
2851;DHT22;1433;49.976;8.342;2023-11-19T12:05:45;18.10;99.90
2851;DHT22;1433;49.976;8.342;2023-11-19T12:08:13;18.30;99.90
2851;DHT22;1433;49.976;8.342;2023-11-19T12:10:46;18.40;99.90
2851;DHT22;1433;49.976;8.342;2023-11-19T12:13:14;18.60;99.90
2851;DHT22;1433;49.976;8.342;2023-11-19T12:20:57;18.60;99.90
2851;DHT22;1433;49.976;8.342;2023-11-19T12:23:31;18.30;99.90
2851;DHT22;1433;49.976;8.342;2023-11-19T12:25:58;18.40;99.90
2851;DHT22;1433;49.976;8.342;2023-11-19T12:28:24;18.30;99.90
2851;DHT22;1433;49.976;8.342;2023-11-19T12:30:53;18.10;99.90
2851;DHT22;1433;49.976;8.342;2023-11-19T12:33:19;18.00;99.90
2851;DHT22;1433;49.976;8.342;2023-11-19T12:35:47;17.70;99.90
2851;DHT22;1433;49.976;8.342;2023-11-19T12:38:21;18.00;99.90
2851;DHT22;1433;49.976;8.342;2023-11-19T12:41:08;18.40;99.90
2851;DHT22;1433;49.976;8.342;2023-11-19T12:43:37;18.00;99.90
2851;DHT22;1433;49.976;8.342;2023-11-19T12:46:17;17.70;99.90
2851;DHT22;1433;49.976;8.342;2023-11-19T12:48:46;17.60;99.90
2851;DHT22;1433;49.976;8.342;2023-11-19T12:51:13;17.70;99.90
2851;DHT22;1433;49.976;8.342;2023-11-19T12:53:51;17.70;99.90
2851;DHT22;1433;49.976;8.342;2023-11-19T12:56:20;17.90;99.90
2851;DHT22;1433;49.976;8.342;2023-11-19T12:58:47;18.20;99.90
2851;DHT22;1433;49.976;8.342;2023-11-19T13:01:18;18.30;99.90
2851;DHT22;1433;49.976;8.342;2023-11-19T13:03:45;18.50;99.90
2851;DHT22;1433;49.976;8.342;2023-11-19T13:06:13;18.30;99.90
2851;DHT22;1433;49.976;8.342;2023-11-19T13:11:11;17.70;99.90
2851;DHT22;1433;49.976;8.342;2023-11-19T13:13:55;17.70;99.90
2851;DHT22;1433;49.976;8.342;2023-11-19T13:16:21;17.50;99.90
2851;DHT22;1433;49.976;8.342;2023-11-19T13:18:47;17.70;99.90
2851;DHT22;1433;49.976;8.342;2023-11-19T13:21:14;17.50;99.90
2851;DHT22;1433;49.976;8.342;2023-11-19T13:23:40;17.30;99.90
2851;DHT22;1433;49.976;8.342;2023-11-19T13:26:06;17.00;99.90
2851;DHT22;1433;49.976;8.342;2023-11-19T13:28:33;16.90;99.90
2851;DHT22;1433;49.976;8.342;2023-11-19T13:30:59;16.90;99.90
2851;DHT22;1433;49.976;8.342;2023-11-19T13:33:26;16.50;99.90
2851;DHT22;1433;49.976;8.342;2023-11-19T13:35:52;16.10;99.90
2851;DHT22;1433;49.976;8.342;2023-11-19T13:38:19;15.90;99.90
2851;DHT22;1433;49.976;8.342;2023-11-19T13:40:45;15.90;99.90
2851;DHT22;1433;49.976;8.342;2023-11-19T13:43:11;15.90;99.90
2851;DHT22;1433;49.976;8.342;2023-11-19T13:45:39;15.90;99.90
2851;DHT22;1433;49.976;8.342;2023-11-19T13:48:05;16.00;99.90
2851;DHT22;1433;49.976;8.342;2023-11-19T13:50:31;16.00;99.90
2851;DHT22;1433;49.976;8.342;2023-11-19T13:52:59;16.00;99.90
2851;DHT22;1433;49.976;8.342;2023-11-19T13:55:26;16.00;99.90
2851;DHT22;1433;49.976;8.342;2023-11-19T13:57:53;16.00;99.90
2851;DHT22;1433;49.976;8.342;2023-11-19T14:00:19;16.10;99.90
2851;DHT22;1433;49.976;8.342;2023-11-19T14:02:47;16.00;99.90
2851;DHT22;1433;49.976;8.342;2023-11-19T14:05:14;16.00;99.90
2851;DHT22;1433;49.976;8.342;2023-11-19T14:07:41;16.00;99.90
2851;DHT22;1433;49.976;8.342;2023-11-19T14:10:08;16.00;99.90
2851;DHT22;1433;49.976;8.342;2023-11-19T14:12:38;16.10;99.90
2851;DHT22;1433;49.976;8.342;2023-11-19T14:15:06;15.90;99.90
2851;DHT22;1433;49.976;8.342;2023-11-19T14:17:33;15.90;99.90
2851;DHT22;1433;49.976;8.342;2023-11-19T14:20:00;15.80;99.90
2851;DHT22;1433;49.976;8.342;2023-11-19T14:22:26;15.70;99.90
2851;DHT22;1433;49.976;8.342;2023-11-19T14:24:52;15.70;99.90
2851;DHT22;1433;49.976;8.342;2023-11-19T14:27:30;15.60;99.90
2851;DHT22;1433;49.976;8.342;2023-11-19T14:29:56;15.50;99.90
2851;DHT22;1433;49.976;8.342;2023-11-19T14:32:22;15.50;99.90
2851;DHT22;1433;49.976;8.342;2023-11-19T14:34:49;15.50;99.90
2851;DHT22;1433;49.976;8.342;2023-11-19T14:37:15;15.50;99.90
2851;DHT22;1433;49.976;8.342;2023-11-19T14:39:41;15.30;99.90
2851;DHT22;1433;49.976;8.342;2023-11-19T14:42:09;15.20;99.90
2851;DHT22;1433;49.976;8.342;2023-11-19T14:44:36;15.10;99.90
2851;DHT22;1433;49.976;8.342;2023-11-19T14:47:02;15.00;99.90
2851;DHT22;1433;49.976;8.342;2023-11-19T14:49:28;15.00;99.90
2851;DHT22;1433;49.976;8.342;2023-11-19T14:51:54;14.90;99.90
2851;DHT22;1433;49.976;8.342;2023-11-19T14:54:20;14.80;99.90
2851;DHT22;1433;49.976;8.342;2023-11-19T14:56:46;14.70;99.90
2851;DHT22;1433;49.976;8.342;2023-11-19T14:59:12;14.60;99.90
2851;DHT22;1433;49.976;8.342;2023-11-19T15:01:38;14.50;99.90
2851;DHT22;1433;49.976;8.342;2023-11-19T15:04:06;14.50;99.90
2851;DHT22;1433;49.976;8.342;2023-11-19T15:06:32;14.40;99.90
2851;DHT22;1433;49.976;8.342;2023-11-19T15:08:59;14.30;99.90
2851;DHT22;1433;49.976;8.342;2023-11-19T15:11:25;14.20;99.90
2851;DHT22;1433;49.976;8.342;2023-11-19T15:13:52;14.20;99.90
2851;DHT22;1433;49.976;8.342;2023-11-19T15:16:18;14.10;99.90
2851;DHT22;1433;49.976;8.342;2023-11-19T15:18:46;14.10;99.90
2851;DHT22;1433;49.976;8.342;2023-11-19T15:21:12;14.10;99.90
2851;DHT22;1433;49.976;8.342;2023-11-19T15:23:39;14.10;99.90
2851;DHT22;1433;49.976;8.342;2023-11-19T15:26:06;14.00;99.90
2851;DHT22;1433;49.976;8.342;2023-11-19T15:28:34;13.90;99.90
2851;DHT22;1433;49.976;8.342;2023-11-19T15:31:00;13.90;99.90
2851;DHT22;1433;49.976;8.342;2023-11-19T15:33:26;13.90;99.90
2851;DHT22;1433;49.976;8.342;2023-11-19T15:35:53;14.00;99.90
2851;DHT22;1433;49.976;8.342;2023-11-19T15:38:19;13.90;99.90
2851;DHT22;1433;49.976;8.342;2023-11-19T15:40:45;13.70;99.90
2851;DHT22;1433;49.976;8.342;2023-11-19T15:43:11;13.70;99.90
2851;DHT22;1433;49.976;8.342;2023-11-19T15:45:38;13.50;99.90
2851;DHT22;1433;49.976;8.342;2023-11-19T15:48:05;13.40;99.90
2851;DHT22;1433;49.976;8.342;2023-11-19T15:50:31;13.30;99.90
2851;DHT22;1433;49.976;8.342;2023-11-19T15:52:58;13.20;99.90
2851;DHT22;1433;49.976;8.342;2023-11-19T15:55:26;13.10;99.90
2851;DHT22;1433;49.976;8.342;2023-11-19T15:57:53;13.00;99.90
2851;DHT22;1433;49.976;8.342;2023-11-19T16:00:19;12.90;99.90
2851;DHT22;1433;49.976;8.342;2023-11-19T16:02:48;12.90;99.90
2851;DHT22;1433;49.976;8.342;2023-11-19T16:05:16;12.90;99.90
2851;DHT22;1433;49.976;8.342;2023-11-19T16:07:42;12.80;99.90
2851;DHT22;1433;49.976;8.342;2023-11-19T16:10:09;13.00;99.90
2851;DHT22;1433;49.976;8.342;2023-11-19T16:12:35;13.00;99.90
2851;DHT22;1433;49.976;8.342;2023-11-19T16:15:01;13.10;99.90
2851;DHT22;1433;49.976;8.342;2023-11-19T16:17:28;13.00;99.90
2851;DHT22;1433;49.976;8.342;2023-11-19T16:19:55;13.00;99.90
2851;DHT22;1433;49.976;8.342;2023-11-19T16:22:21;12.90;99.90
2851;DHT22;1433;49.976;8.342;2023-11-19T16:24:47;12.80;99.90
2851;DHT22;1433;49.976;8.342;2023-11-19T16:27:14;12.80;99.90
2851;DHT22;1433;49.976;8.342;2023-11-19T16:29:40;12.70;99.90
2851;DHT22;1433;49.976;8.342;2023-11-19T16:32:06;12.60;99.90
2851;DHT22;1433;49.976;8.342;2023-11-19T16:34:32;12.60;99.90
2851;DHT22;1433;49.976;8.342;2023-11-19T16:37:01;12.60;99.90
2851;DHT22;1433;49.976;8.342;2023-11-19T16:39:27;12.60;99.90
2851;DHT22;1433;49.976;8.342;2023-11-19T16:41:54;12.50;99.90